Time;durP1;ratioP1;P1;durP2;ratioP2;P2;SDS_P1;SDS_P2;PMS_P1;PMS_P2;Temp;Humidity;BMP_temperature;BMP_pressure;BME280_temperature;BME280_humidity;BME280_pressure;Samples;Min_cycle;Max_cycle;Signal;HPM_P1;HPM_P2
2024/02/18 00:01:17;;;;;;;15.60;8.85;;;11.20;99.90;;;;;;5028333;28;20026;-88
2024/02/18 00:03:44;;;;;;;19.02;9.50;;;11.20;99.90;;;;;;5022845;28;20048;-88
2024/02/18 00:06:10;;;;;;;16.17;8.35;;;11.20;99.90;;;;;;5029248;28;20593;-89
2024/02/18 00:08:35;;;;;;;15.70;8.80;;;11.20;99.90;;;;;;5026351;28;20034;-88
2024/02/18 00:11:01;;;;;;;20.02;9.73;;;11.10;99.90;;;;;;5033428;28;20553;-89
2024/02/18 00:13:26;;;;;;;17.65;9.02;;;11.10;99.90;;;;;;5031055;28;20112;-88
2024/02/18 00:15:52;;;;;;;17.50;8.70;;;11.20;99.90;;;;;;5023715;28;20112;-89
2024/02/18 00:18:18;;;;;;;17.05;9.15;;;11.10;99.90;;;;;;5027599;28;20160;-88
2024/02/18 00:20:43;;;;;;;16.70;8.43;;;11.10;99.90;;;;;;5033348;28;20492;-87
2024/02/18 00:23:09;;;;;;;15.38;8.63;;;11.10;99.90;;;;;;5033359;28;20022;-88
2024/02/18 00:25:34;;;;;;;17.15;8.52;;;11.10;99.90;;;;;;5029997;28;20025;-87
2024/02/18 00:28:00;;;;;;;13.27;8.65;;;11.10;99.90;;;;;;5030263;28;20564;-88
2024/02/18 00:30:26;;;;;;;17.20;8.90;;;11.10;99.90;;;;;;5039507;28;20443;-88
2024/02/18 00:32:52;;;;;;;13.93;8.40;;;11.10;99.90;;;;;;5028597;28;20029;-87
2024/02/18 00:35:17;;;;;;;18.05;8.65;;;11.10;99.90;;;;;;5032754;28;20039;-88
2024/02/18 00:37:43;;;;;;;18.92;8.98;;;11.10;99.90;;;;;;5028162;28;20038;-87
2024/02/18 00:40:09;;;;;;;17.75;8.35;;;11.10;99.90;;;;;;5047963;28;20026;-88
2024/02/18 00:42:34;;;;;;;14.93;8.68;;;11.10;99.90;;;;;;5038522;28;20032;-88
2024/02/18 00:45:00;;;;;;;11.48;7.57;;;11.10;99.90;;;;;;5025989;28;20028;-88
2024/02/18 00:47:26;;;;;;;20.45;8.77;;;11.10;99.90;;;;;;5029837;28;20488;-88
2024/02/18 00:49:52;;;;;;;17.30;8.70;;;11.10;99.90;;;;;;5034701;28;20061;-88
2024/02/18 00:52:17;;;;;;;21.45;9.73;;;11.10;99.90;;;;;;5028203;28;20388;-87
2024/02/18 00:54:43;;;;;;;17.10;9.15;;;11.00;99.90;;;;;;5034316;28;20551;-88
2024/02/18 00:57:08;;;;;;;20.42;9.30;;;11.10;99.90;;;;;;5031039;28;20040;-88
2024/02/18 00:59:34;;;;;;;20.58;9.10;;;11.10;99.90;;;;;;5036938;28;20383;-88
2024/02/18 01:02:00;;;;;;;18.38;9.38;;;11.10;99.90;;;;;;5028221;28;20479;-87
2024/02/18 01:04:25;;;;;;;14.93;8.13;;;11.00;99.90;;;;;;5042150;28;20511;-87
2024/02/18 01:06:51;;;;;;;17.75;9.73;;;11.10;99.90;;;;;;5037530;28;20030;-86
2024/02/18 01:09:16;;;;;;;17.75;8.95;;;11.10;99.90;;;;;;5032929;28;20041;-88
2024/02/18 01:11:42;;;;;;;15.38;8.60;;;11.00;99.90;;;;;;5036129;28;20464;-87
2024/02/18 01:14:08;;;;;;;18.45;9.98;;;11.00;99.90;;;;;;5028224;28;20025;-86
2024/02/18 01:16:33;;;;;;;17.60;9.90;;;11.00;99.90;;;;;;5035067;28;20033;-87
2024/02/18 01:18:59;;;;;;;17.23;9.35;;;11.00;99.90;;;;;;5028075;28;20097;-88
2024/02/18 01:21:24;;;;;;;19.58;9.30;;;11.00;99.90;;;;;;5021643;28;20025;-87
2024/02/18 01:23:50;;;;;;;16.48;9.55;;;11.00;99.90;;;;;;5026859;28;20033;-88
2024/02/18 01:26:16;;;;;;;25.40;11.27;;;11.00;99.90;;;;;;5031109;28;20022;-87
2024/02/18 01:28:42;;;;;;;20.65;11.27;;;11.10;99.90;;;;;;5025236;28;20536;-87
2024/02/18 01:31:07;;;;;;;23.50;9.88;;;11.00;99.90;;;;;;5035900;28;20021;-87
2024/02/18 01:33:33;;;;;;;20.48;10.23;;;11.00;99.90;;;;;;5026132;28;20521;-88
2024/02/18 01:35:58;;;;;;;22.08;11.32;;;11.00;99.90;;;;;;5039427;28;20022;-87
2024/02/18 01:38:24;;;;;;;24.10;10.80;;;11.00;99.90;;;;;;5037720;28;20025;-87
2024/02/18 01:40:49;;;;;;;23.42;10.68;;;11.00;99.90;;;;;;5023003;28;20508;-87
2024/02/18 01:43:17;;;;;;;20.05;10.30;;;11.00;99.90;;;;;;5028576;28;20017;-88
2024/02/18 01:45:47;;;;;;;19.13;10.10;;;11.00;99.90;;;;;;5028481;28;20029;-87
2024/02/18 01:48:17;;;;;;;23.75;11.82;;;11.00;99.90;;;;;;5032913;28;20024;-87
2024/02/18 01:50:44;;;;;;;18.27;10.05;;;11.00;99.90;;;;;;5029976;28;20029;-87
2024/02/18 01:53:10;;;;;;;23.52;10.73;;;11.00;99.90;;;;;;5020157;28;20026;-87
2024/02/18 01:55:36;;;;;;;21.27;10.18;;;11.00;99.90;;;;;;5025962;28;20022;-87
2024/02/18 01:58:04;;;;;;;20.05;10.73;;;11.00;99.90;;;;;;5029239;28;20492;-86
2024/02/18 02:00:30;;;;;;;17.33;9.85;;;11.00;99.90;;;;;;5032610;28;20051;-87
2024/02/18 02:02:56;;;;;;;24.17;10.18;;;11.00;99.90;;;;;;5039717;28;20154;-87
2024/02/18 02:05:21;;;;;;;20.75;9.98;;;11.00;99.90;;;;;;5034423;28;20051;-88
2024/02/18 02:07:50;;;;;;;22.83;9.60;;;10.90;99.90;;;;;;5027221;28;20029;-88
2024/02/18 02:10:17;;;;;;;20.55;9.55;;;11.00;99.90;;;;;;5031646;28;20028;-88
2024/02/18 02:12:43;;;;;;;21.95;10.30;;;10.90;99.90;;;;;;5028314;28;20030;-88
2024/02/18 02:15:10;;;;;;;22.70;9.20;;;11.00;99.90;;;;;;5030286;28;20487;-88
2024/02/18 02:17:39;;;;;;;24.90;10.43;;;10.90;99.90;;;;;;5037410;28;20029;-88
2024/02/18 02:20:09;;;;;;;21.05;10.40;;;10.90;99.90;;;;;;5024842;28;20113;-87
2024/02/18 02:22:37;;;;;;;20.80;10.00;;;10.90;99.90;;;;;;5029538;28;20022;-87
2024/02/18 02:25:04;;;;;;;16.70;9.35;;;10.90;99.90;;;;;;5031480;28;20033;-87
2024/02/18 02:27:36;;;;;;;21.35;10.15;;;11.00;99.90;;;;;;5022787;28;20029;-87
2024/02/18 02:30:03;;;;;;;23.80;9.98;;;10.90;99.90;;;;;;5029401;28;20034;-88
2024/02/18 02:32:29;;;;;;;19.55;9.82;;;10.90;99.90;;;;;;5023284;28;20029;-87
2024/02/18 02:34:54;;;;;;;18.48;8.73;;;10.90;99.90;;;;;;5021917;28;20558;-87
2024/02/18 02:37:20;;;;;;;22.10;10.23;;;11.00;99.90;;;;;;5035080;28;20051;-86
2024/02/18 02:39:46;;;;;;;18.27;9.20;;;11.00;99.90;;;;;;5029533;28;20030;-87
2024/02/18 02:42:12;;;;;;;18.60;8.65;;;10.90;99.90;;;;;;5030160;28;20499;-88
2024/02/18 02:44:37;;;;;;;18.85;9.15;;;10.90;99.90;;;;;;5026174;28;20064;-87
2024/02/18 02:47:03;;;;;;;19.48;9.32;;;10.90;99.90;;;;;;5024078;28;20510;-88
2024/02/18 02:49:29;;;;;;;21.98;9.40;;;10.90;99.90;;;;;;5018586;28;20049;-87
2024/02/18 02:51:55;;;;;;;18.05;9.27;;;10.90;99.90;;;;;;5020787;28;20056;-87
2024/02/18 02:54:20;;;;;;;15.65;8.60;;;10.90;99.90;;;;;;5027743;28;20030;-88
2024/02/18 02:56:46;;;;;;;18.35;9.25;;;10.90;99.90;;;;;;5026303;28;20068;-88
2024/02/18 02:59:11;;;;;;;20.15;9.20;;;10.90;99.90;;;;;;5037261;28;20387;-87
2024/02/18 03:01:37;;;;;;;16.90;9.07;;;10.90;99.90;;;;;;5033898;28;20022;-87
2024/02/18 03:04:03;;;;;;;18.45;9.38;;;10.90;99.90;;;;;;5032221;28;20041;-88
2024/02/18 03:06:29;;;;;;;14.60;8.55;;;10.90;99.90;;;;;;5034842;28;20101;-88
2024/02/18 03:08:55;;;;;;;20.02;9.68;;;10.90;99.90;;;;;;5028981;28;20049;-88
2024/02/18 03:11:20;;;;;;;17.23;8.98;;;10.90;99.90;;;;;;5022360;28;20507;-87
2024/02/18 03:13:46;;;;;;;18.88;10.35;;;10.90;99.90;;;;;;5024875;28;20038;-88
2024/02/18 03:16:11;;;;;;;18.92;9.85;;;10.90;99.90;;;;;;5026255;28;20021;-87
2024/02/18 03:18:37;;;;;;;21.13;9.20;;;10.90;99.90;;;;;;5025334;28;20021;-87
2024/02/18 03:21:03;;;;;;;20.70;8.90;;;10.90;99.90;;;;;;5029730;28;20029;-88
2024/02/18 03:23:28;;;;;;;20.17;9.45;;;10.90;99.90;;;;;;5028420;28;20510;-88
2024/02/18 03:25:55;;;;;;;16.98;9.23;;;10.90;99.90;;;;;;5032916;28;20040;-87
2024/02/18 03:28:20;;;;;;;14.80;8.77;;;10.90;99.90;;;;;;5031092;28;20108;-88
2024/02/18 03:30:51;;;;;;;15.50;8.73;;;10.90;99.90;;;;;;5027824;28;20056;-87
2024/02/18 03:33:18;;;;;;;17.48;9.07;;;10.90;99.90;;;;;;5036670;28;20021;-88
2024/02/18 03:35:43;;;;;;;20.15;8.20;;;10.90;99.90;;;;;;5031123;28;20112;-88
2024/02/18 03:38:09;;;;;;;15.07;8.60;;;10.90;99.90;;;;;;5026172;28;20089;-88
2024/02/18 03:40:35;;;;;;;15.35;8.88;;;10.80;99.90;;;;;;5028398;28;20549;-88
2024/02/18 03:43:02;;;;;;;18.85;8.50;;;10.90;99.90;;;;;;5033301;28;20511;-87
2024/02/18 03:45:27;;;;;;;16.83;8.07;;;10.90;99.90;;;;;;5035867;28;20030;-87
2024/02/18 03:47:53;;;;;;;14.38;8.55;;;10.90;99.90;;;;;;5034721;28;20545;-88
2024/02/18 03:50:18;;;;;;;15.98;9.30;;;10.90;99.90;;;;;;5035971;28;20752;-88
2024/02/18 03:52:44;;;;;;;16.17;9.55;;;10.80;99.90;;;;;;5025954;28;20071;-87
2024/02/18 03:55:11;;;;;;;17.55;8.13;;;10.80;99.90;;;;;;5029706;28;20065;-88
2024/02/18 03:57:37;;;;;;;20.73;8.98;;;10.80;99.90;;;;;;5025907;28;20036;-87
2024/02/18 04:00:05;;;;;;;16.05;8.38;;;10.80;99.90;;;;;;5028162;28;20026;-88
2024/02/18 04:02:34;;;;;;;17.63;9.13;;;10.90;99.90;;;;;;5032445;28;20033;-87
2024/02/18 04:04:59;;;;;;;16.90;9.30;;;10.80;99.90;;;;;;5029831;28;20112;-88
2024/02/18 04:07:25;;;;;;;18.23;8.57;;;10.80;99.90;;;;;;5034151;28;20108;-88
2024/02/18 04:09:50;;;;;;;16.13;9.05;;;10.80;99.90;;;;;;5019524;28;20062;-88
2024/02/18 04:12:16;;;;;;;17.35;9.43;;;10.80;99.90;;;;;;5038617;28;20052;-87
2024/02/18 04:14:42;;;;;;;19.60;8.75;;;10.80;99.90;;;;;;5034416;28;20029;-87
2024/02/18 04:17:08;;;;;;;16.67;9.02;;;10.80;99.90;;;;;;5032604;28;20087;-88
2024/02/18 04:19:33;;;;;;;18.67;8.57;;;10.80;99.90;;;;;;5045438;28;20025;-87
2024/02/18 04:21:59;;;;;;;17.52;8.70;;;10.80;99.90;;;;;;5029998;28;20092;-88
2024/02/18 04:24:25;;;;;;;21.58;9.43;;;10.80;99.90;;;;;;5025077;28;20021;-86
2024/02/18 04:26:50;;;;;;;18.75;8.77;;;10.80;99.90;;;;;;5025517;28;20557;-87
2024/02/18 04:29:16;;;;;;;15.63;8.52;;;10.80;99.90;;;;;;5034039;28;20417;-87
2024/02/18 04:31:41;;;;;;;15.40;8.10;;;10.80;99.90;;;;;;5029680;28;20407;-87
2024/02/18 04:34:07;;;;;;;18.52;9.30;;;10.80;99.90;;;;;;5025754;28;20029;-88
2024/02/18 04:36:32;;;;;;;17.05;8.57;;;10.80;99.90;;;;;;5017403;28;20033;-87
2024/02/18 04:38:58;;;;;;;16.10;8.32;;;10.80;99.90;;;;;;5029814;28;20028;-89
2024/02/18 04:41:23;;;;;;;16.25;8.70;;;10.80;99.90;;;;;;5031884;28;20023;-89
2024/02/18 04:43:49;;;;;;;17.65;9.13;;;10.80;99.90;;;;;;5027441;28;20592;-88
2024/02/18 04:46:14;;;;;;;21.88;8.93;;;10.80;99.90;;;;;;5033988;28;20392;-88
2024/02/18 04:48:40;;;;;;;13.05;7.47;;;10.70;99.90;;;;;;5039282;28;20021;-88
2024/02/18 04:51:05;;;;;;;15.25;8.27;;;10.70;99.90;;;;;;5032861;28;20075;-86
2024/02/18 04:53:31;;;;;;;17.58;8.82;;;10.70;99.90;;;;;;5033447;28;20040;-88
2024/02/18 04:55:56;;;;;;;15.57;8.15;;;10.70;99.90;;;;;;5031732;28;20510;-87
2024/02/18 04:58:23;;;;;;;14.82;8.40;;;10.70;99.90;;;;;;5031383;28;20045;-87
2024/02/18 05:00:49;;;;;;;15.25;8.43;;;10.70;99.90;;;;;;5022728;28;20014;-87
2024/02/18 05:03:14;;;;;;;15.85;7.60;;;10.70;99.90;;;;;;5039299;28;20026;-87
2024/02/18 05:05:40;;;;;;;13.55;7.80;;;10.70;99.90;;;;;;5016442;28;20028;-88
2024/02/18 05:08:05;;;;;;;15.07;8.15;;;10.70;99.90;;;;;;5023018;28;20018;-88
2024/02/18 05:10:31;;;;;;;15.90;7.15;;;10.70;99.90;;;;;;5037645;28;20025;-88
2024/02/18 05:12:56;;;;;;;14.88;8.70;;;10.70;99.90;;;;;;5025432;28;20037;-87
2024/02/18 05:15:24;;;;;;;16.05;8.02;;;10.70;99.90;;;;;;5032551;28;20026;-87
2024/02/18 05:17:49;;;;;;;11.68;7.18;;;10.70;99.90;;;;;;5032366;28;20022;-86
2024/02/18 05:20:15;;;;;;;16.95;8.13;;;10.70;99.90;;;;;;5027262;28;20029;-87
2024/02/18 05:22:41;;;;;;;14.57;7.03;;;10.70;99.90;;;;;;5026664;28;20364;-87
2024/02/18 05:25:06;;;;;;;16.60;7.60;;;10.70;99.90;;;;;;5028869;28;20033;-88
2024/02/18 05:27:32;;;;;;;15.32;7.72;;;10.70;99.90;;;;;;5040914;28;20086;-87
2024/02/18 05:29:58;;;;;;;15.65;8.27;;;10.70;99.90;;;;;;5036167;28;20022;-87
2024/02/18 05:32:25;;;;;;;12.75;7.25;;;10.70;99.90;;;;;;5038208;28;20031;-88
2024/02/18 05:34:50;;;;;;;15.15;7.47;;;10.70;99.90;;;;;;5033244;28;20078;-87
2024/02/18 05:37:16;;;;;;;15.38;8.30;;;10.70;99.90;;;;;;5039269;28;20025;-87
2024/02/18 05:39:41;;;;;;;14.77;8.07;;;10.70;99.90;;;;;;5036907;28;20017;-87
2024/02/18 05:42:07;;;;;;;13.55;7.93;;;10.60;99.90;;;;;;5052757;28;20483;-88
2024/02/18 05:44:33;;;;;;;14.95;7.85;;;10.70;99.90;;;;;;5031397;28;20024;-88
2024/02/18 05:46:59;;;;;;;16.10;7.97;;;10.70;99.90;;;;;;5030273;28;20115;-88
2024/02/18 05:49:24;;;;;;;16.40;7.70;;;10.60;99.90;;;;;;5033395;28;20041;-87
2024/02/18 05:51:53;;;;;;;16.33;8.35;;;10.60;99.90;;;;;;5019569;28;20056;-87
2024/02/18 05:54:20;;;;;;;20.25;8.23;;;10.60;99.90;;;;;;5031980;28;20029;-89
2024/02/18 05:56:46;;;;;;;16.90;7.32;;;10.70;99.90;;;;;;5030751;28;20104;-87
2024/02/18 05:59:11;;;;;;;14.20;7.95;;;10.70;99.90;;;;;;5028135;28;20028;-87
2024/02/18 06:01:37;;;;;;;11.52;7.57;;;10.60;99.90;;;;;;5040452;28;20021;-88
2024/02/18 06:04:03;;;;;;;13.82;8.13;;;10.60;99.90;;;;;;5033346;28;20034;-88
2024/02/18 06:06:29;;;;;;;19.08;8.90;;;10.60;99.90;;;;;;5025705;28;20053;-87
2024/02/18 06:08:55;;;;;;;15.30;8.10;;;10.60;99.90;;;;;;5028076;28;20025;-87
2024/02/18 06:11:21;;;;;;;15.50;8.73;;;10.60;99.90;;;;;;5030350;28;20029;-86
2024/02/18 06:13:46;;;;;;;15.05;8.50;;;10.60;99.90;;;;;;5028132;28;20099;-87
2024/02/18 06:16:12;;;;;;;16.92;8.95;;;10.60;99.90;;;;;;5042690;28;20067;-86
2024/02/18 06:18:38;;;;;;;17.17;8.98;;;10.60;99.90;;;;;;5025515;28;20025;-87
2024/02/18 06:21:04;;;;;;;14.02;8.40;;;10.60;99.90;;;;;;5036130;28;20017;-88
2024/02/18 06:23:30;;;;;;;17.70;8.95;;;10.60;99.90;;;;;;5035962;28;20033;-87
2024/02/18 06:25:56;;;;;;;16.73;8.05;;;10.60;99.90;;;;;;5042947;28;20485;-87
2024/02/18 06:28:22;;;;;;;15.10;7.85;;;10.60;99.90;;;;;;5020491;28;20022;-88
2024/02/18 06:30:47;;;;;;;18.13;8.55;;;10.60;99.90;;;;;;5030376;28;20399;-87
2024/02/18 06:33:13;;;;;;;14.40;8.25;;;10.60;99.90;;;;;;5031276;28;20403;-88
2024/02/18 06:35:39;;;;;;;16.15;8.32;;;10.60;99.90;;;;;;5042127;28;20040;-88
2024/02/18 06:38:04;;;;;;;24.52;8.75;;;10.60;99.90;;;;;;5022938;28;20026;-87
2024/02/18 06:40:30;;;;;;;16.45;7.60;;;10.60;99.90;;;;;;5026720;28;20044;-86
2024/02/18 06:42:55;;;;;;;16.90;8.05;;;10.60;99.90;;;;;;5045120;28;20021;-87
2024/02/18 06:45:21;;;;;;;15.95;8.13;;;10.60;99.90;;;;;;5021046;28;20103;-87
2024/02/18 06:47:49;;;;;;;12.70;7.60;;;10.60;99.90;;;;;;5038112;28;20025;-88
2024/02/18 06:50:16;;;;;;;16.83;7.95;;;10.60;99.90;;;;;;5024507;28;20093;-88
2024/02/18 06:52:41;;;;;;;17.95;7.63;;;10.60;99.90;;;;;;5030299;28;20112;-87
2024/02/18 06:55:07;;;;;;;18.33;8.02;;;10.60;99.90;;;;;;5036306;28;20116;-87
2024/02/18 06:57:33;;;;;;;15.38;7.60;;;10.60;99.90;;;;;;5033241;28;20017;-87
2024/02/18 06:59:59;;;;;;;15.05;7.85;;;10.60;99.90;;;;;;5021971;28;20018;-89
2024/02/18 07:02:24;;;;;;;14.63;7.72;;;10.60;99.90;;;;;;5028810;28;20026;-87
2024/02/18 07:04:50;;;;;;;16.42;8.15;;;10.60;99.90;;;;;;5026475;28;20484;-88
2024/02/18 07:07:16;;;;;;;15.63;8.48;;;10.60;99.90;;;;;;5031239;28;20033;-87
2024/02/18 07:09:42;;;;;;;15.00;7.72;;;10.60;99.90;;;;;;5032395;28;20048;-88
2024/02/18 07:12:08;;;;;;;13.73;7.85;;;10.60;99.90;;;;;;5035417;28;20033;-88
2024/02/18 07:14:35;;;;;;;16.25;8.38;;;10.60;99.90;;;;;;5027927;28;20048;-88
2024/02/18 07:17:02;;;;;;;18.85;8.63;;;10.60;99.90;;;;;;5025124;28;20013;-87
2024/02/18 07:19:28;;;;;;;16.30;8.50;;;10.60;99.90;;;;;;5032226;28;20022;-87
2024/02/18 07:21:53;;;;;;;17.17;8.63;;;10.60;99.90;;;;;;5029704;28;20063;-87
2024/02/18 07:24:19;;;;;;;16.48;8.32;;;10.70;99.90;;;;;;5034868;28;20120;-88
2024/02/18 07:26:44;;;;;;;19.38;7.35;;;10.60;99.90;;;;;;5031698;28;20025;-87
2024/02/18 07:29:10;;;;;;;18.25;8.77;;;10.60;99.90;;;;;;5026774;28;20026;-87
2024/02/18 07:31:36;;;;;;;21.15;8.32;;;10.60;99.90;;;;;;5035946;28;20033;-88
2024/02/18 07:34:04;;;;;;;14.00;8.68;;;10.70;99.90;;;;;;5034146;28;20036;-88
2024/02/18 07:36:33;;;;;;;14.18;7.47;;;10.60;99.90;;;;;;5048998;28;20088;-87
2024/02/18 07:38:58;;;;;;;18.38;7.93;;;10.60;99.90;;;;;;5029328;28;20018;-88
2024/02/18 07:41:25;;;;;;;20.10;8.93;;;10.70;99.90;;;;;;5033018;28;20052;-87
2024/02/18 07:43:51;;;;;;;16.48;9.18;;;10.70;99.90;;;;;;5038294;28;20468;-88
2024/02/18 07:46:17;;;;;;;20.67;9.13;;;10.70;99.90;;;;;;5046335;28;20026;-91
2024/02/18 07:48:43;;;;;;;15.55;8.40;;;10.70;99.90;;;;;;5030703;28;20023;-87
2024/02/18 07:51:09;;;;;;;15.27;8.63;;;10.70;99.90;;;;;;5031067;28;20454;-88
2024/02/18 07:53:35;;;;;;;12.98;7.40;;;10.70;99.90;;;;;;5041597;28;20021;-87
2024/02/18 07:56:00;;;;;;;15.32;8.32;;;10.80;99.90;;;;;;5027738;28;20485;-90
2024/02/18 07:58:26;;;;;;;19.70;9.10;;;10.80;99.90;;;;;;5034351;28;20082;-89
2024/02/18 08:00:51;;;;;;;16.92;8.27;;;10.80;99.90;;;;;;5036523;28;20021;-88
2024/02/18 08:03:17;;;;;;;17.90;9.02;;;10.80;99.90;;;;;;5028722;28;20433;-88
2024/02/18 08:05:42;;;;;;;16.73;8.90;;;10.80;99.90;;;;;;5025475;28;20017;-90
2024/02/18 08:08:08;;;;;;;24.35;9.02;;;10.80;99.90;;;;;;5020880;28;20037;-87
2024/02/18 08:10:33;;;;;;;16.63;9.05;;;10.80;99.90;;;;;;5027752;28;20141;-89
2024/02/18 08:12:59;;;;;;;16.50;8.45;;;10.90;99.90;;;;;;5026449;28;20067;-89
2024/02/18 08:15:24;;;;;;;19.45;9.45;;;10.90;99.90;;;;;;5028589;28;20025;-87
2024/02/18 08:17:50;;;;;;;18.00;8.88;;;10.90;99.90;;;;;;5030457;28;20032;-88
2024/02/18 08:20:16;;;;;;;15.13;8.48;;;10.90;99.90;;;;;;5029095;28;20017;-90
2024/02/18 08:22:41;;;;;;;16.42;9.65;;;11.00;99.90;;;;;;5030350;28;20483;-88
2024/02/18 08:25:07;;;;;;;15.63;9.02;;;11.00;99.90;;;;;;5035625;28;20025;-88
2024/02/18 08:27:33;;;;;;;19.17;9.18;;;11.00;99.90;;;;;;5038422;28;20044;-88
2024/02/18 08:29:59;;;;;;;19.38;9.38;;;11.00;99.90;;;;;;5056166;28;20016;-88
2024/02/18 08:32:25;;;;;;;22.45;8.35;;;11.10;99.90;;;;;;5039907;28;20052;-88
2024/02/18 08:34:50;;;;;;;20.80;9.25;;;11.10;99.90;;;;;;5043485;28;20467;-88
2024/02/18 08:37:16;;;;;;;21.00;9.35;;;11.20;99.90;;;;;;5034517;28;20009;-90
2024/02/18 08:39:42;;;;;;;18.67;8.93;;;11.30;99.90;;;;;;5033702;28;20254;-87
2024/02/18 08:42:07;;;;;;;18.98;9.05;;;11.40;99.90;;;;;;5027963;28;20025;-88
2024/02/18 08:44:33;;;;;;;19.35;9.02;;;11.50;99.90;;;;;;5033367;28;20025;-89
2024/02/18 08:46:58;;;;;;;17.00;9.35;;;11.60;99.90;;;;;;5038730;28;20017;-88
2024/02/18 08:49:24;;;;;;;22.33;9.95;;;11.70;99.90;;;;;;5033977;28;20013;-88
2024/02/18 08:51:51;;;;;;;15.77;9.18;;;11.80;99.90;;;;;;5026124;28;20075;-88
2024/02/18 08:54:16;;;;;;;24.88;10.05;;;11.90;99.90;;;;;;5037026;28;20028;-88
2024/02/18 08:56:42;;;;;;;23.77;11.05;;;12.00;99.90;;;;;;5032311;28;20022;-89
2024/02/18 08:59:08;;;;;;;20.55;10.98;;;12.20;99.90;;;;;;5034285;28;20009;-89
2024/02/18 09:01:34;;;;;;;25.13;11.60;;;12.30;99.90;;;;;;5043892;28;20017;-88
2024/02/18 09:03:59;;;;;;;23.08;10.93;;;12.40;99.90;;;;;;5030216;28;20030;-89
2024/02/18 09:06:27;;;;;;;21.85;11.50;;;12.40;99.90;;;;;;5034276;28;20025;-88
2024/02/18 09:08:53;;;;;;;18.90;10.82;;;12.40;99.90;;;;;;5028327;28;20025;-88
2024/02/18 09:11:19;;;;;;;21.05;11.32;;;12.50;99.90;;;;;;5044177;28;20483;-89
2024/02/18 09:13:44;;;;;;;25.02;11.30;;;12.50;99.90;;;;;;5035588;28;20033;-88
2024/02/18 09:16:10;;;;;;;24.23;10.77;;;12.60;99.90;;;;;;5050148;28;20022;-88
2024/02/18 09:18:37;;;;;;;26.42;12.23;;;12.60;99.90;;;;;;5033043;28;20018;-90
2024/02/18 09:21:03;;;;;;;28.25;12.88;;;12.70;99.90;;;;;;5038500;28;20013;-88
2024/02/18 09:23:28;;;;;;;31.02;14.13;;;12.80;99.90;;;;;;5033429;28;20017;-88
2024/02/18 09:25:54;;;;;;;29.23;13.77;;;12.90;99.90;;;;;;5018787;28;20466;-88
2024/02/18 09:28:20;;;;;;;32.60;14.77;;;13.00;99.90;;;;;;5021682;28;20067;-87
2024/02/18 09:30:46;;;;;;;26.52;13.18;;;13.10;99.90;;;;;;5021808;28;20083;-90
2024/02/18 09:33:11;;;;;;;35.72;16.67;;;13.20;99.90;;;;;;5033699;28;20794;-88
2024/02/18 09:35:37;;;;;;;34.83;16.00;;;13.20;99.90;;;;;;5032554;28;20026;-88
2024/02/18 09:38:09;;;;;;;32.35;15.68;;;13.20;99.90;;;;;;5032230;28;20018;-88
2024/02/18 09:40:36;;;;;;;36.42;15.05;;;13.30;99.90;;;;;;5030119;28;20013;-88
2024/02/18 09:43:01;;;;;;;33.47;16.58;;;13.40;99.90;;;;;;5020807;28;20459;-89
2024/02/18 09:45:29;;;;;;;35.45;16.30;;;13.40;99.90;;;;;;5024673;28;20030;-89
2024/02/18 09:47:56;;;;;;;28.33;15.35;;;13.40;99.90;;;;;;5022050;28;20450;-88
2024/02/18 09:50:22;;;;;;;35.08;16.17;;;13.50;99.90;;;;;;5021996;28;20021;-89
2024/02/18 09:52:50;;;;;;;32.35;16.00;;;13.50;99.90;;;;;;5019300;28;20534;-89
2024/02/18 09:55:17;;;;;;;37.85;17.65;;;13.60;99.90;;;;;;5034595;28;20461;-89
2024/02/18 09:57:42;;;;;;;37.08;17.13;;;13.60;99.90;;;;;;5040894;28;20021;-88
2024/02/18 10:00:08;;;;;;;37.55;16.70;;;13.70;99.90;;;;;;5054219;28;20110;-89
2024/02/18 10:02:35;;;;;;;36.75;18.23;;;13.70;99.90;;;;;;5032420;28;20514;-88
2024/02/18 10:05:02;;;;;;;37.65;17.73;;;13.70;99.90;;;;;;5033900;28;20131;-91
2024/02/18 10:07:28;;;;;;;40.78;16.70;;;13.80;99.90;;;;;;5028188;28;20391;-88
2024/02/18 10:09:53;;;;;;;40.05;17.35;;;13.90;99.90;;;;;;5022666;28;20022;-88
2024/02/18 10:12:20;;;;;;;37.40;17.25;;;13.90;99.90;;;;;;5023936;28;20025;-89
2024/02/18 10:14:56;;;;;;;36.55;17.00;;;13.90;99.90;;;;;;5035030;28;20444;-88
2024/02/18 10:17:22;;;;;;;39.88;17.60;;;13.90;99.90;;;;;;5047832;28;20052;-89
2024/02/18 10:19:47;;;;;;;35.85;17.48;;;13.80;99.90;;;;;;5033486;28;20045;-89
2024/02/18 10:22:13;;;;;;;37.30;17.98;;;13.90;99.90;;;;;;5019769;28;20022;-87
2024/02/18 10:24:39;;;;;;;45.95;18.58;;;14.00;99.90;;;;;;5017760;28;20073;-88
2024/02/18 10:27:04;;;;;;;38.95;16.67;;;14.00;99.90;;;;;;5044470;28;20023;-90
2024/02/18 10:29:30;;;;;;;44.80;17.20;;;14.10;99.90;;;;;;5028001;28;20040;-88
2024/02/18 10:31:56;;;;;;;43.10;18.65;;;14.20;99.90;;;;;;5033851;28;20029;-88
2024/02/18 10:34:21;;;;;;;40.50;17.55;;;14.20;99.90;;;;;;5029951;28;20087;-88
2024/02/18 10:36:55;;;;;;;36.65;16.38;;;14.20;99.90;;;;;;5025508;28;20530;-88
2024/02/18 10:39:23;;;;;;;34.65;15.88;;;14.30;99.90;;;;;;5031631;28;20382;-88
2024/02/18 10:42:11;;;;;;;35.42;15.98;;;14.30;99.90;;;;;;5035416;28;20021;-88
2024/02/18 10:44:41;;;;;;;39.13;15.95;;;14.30;99.90;;;;;;5032974;28;20021;-88
2024/02/18 10:47:08;;;;;;;;;;;14.30;99.90;;;;;;5030896;28;20076;-88
2024/02/18 10:49:44;;;;;;;33.10;15.15;;;14.20;99.90;;;;;;5032836;28;20359;-88
2024/02/18 10:52:10;;;;;;;34.30;15.68;;;14.30;99.90;;;;;;5028616;28;20048;-88
2024/02/18 10:54:46;;;;;;;32.35;15.57;;;14.30;99.90;;;;;;5044612;28;20475;-88
2024/02/18 10:57:12;;;;;;;34.97;15.57;;;14.30;99.90;;;;;;5028696;28;20067;-89
2024/02/18 11:00:03;;;;;;;32.78;15.40;;;14.30;99.90;;;;;;5032545;28;20053;-88
2024/02/18 11:02:49;;;;;;;35.33;15.48;;;14.30;99.90;;;;;;5033524;28;20052;-88
2024/02/18 11:05:16;;;;;;;29.45;14.48;;;14.20;99.90;;;;;;5046315;28;20028;-88
2024/02/18 11:07:43;;;;;;;32.92;14.05;;;14.20;99.90;;;;;;5031268;28;20028;-88
2024/02/18 11:10:08;;;;;;;27.65;14.80;;;14.10;99.90;;;;;;5039475;28;20024;-88
2024/02/18 11:12:35;;;;;;;35.38;14.70;;;14.00;99.90;;;;;;5022011;28;20027;-88
2024/02/18 11:15:02;;;;;;;26.00;12.35;;;13.90;99.90;;;;;;5030991;28;20026;-88
2024/02/18 11:17:29;;;;;;;27.83;14.07;;;14.00;99.90;;;;;;5021786;28;20022;-88
2024/02/18 11:19:55;;;;;;;33.47;14.25;;;13.90;99.90;;;;;;5028739;28;20072;-88
2024/02/18 11:22:22;;;;;;;25.25;13.45;;;13.90;99.90;;;;;;5030681;28;20109;-88
2024/02/18 11:24:48;;;;;;;25.02;13.68;;;13.80;99.90;;;;;;5031621;28;20491;-89
2024/02/18 11:27:15;;;;;;;25.80;12.43;;;13.80;99.90;;;;;;5030247;28;20022;-88
2024/02/18 11:29:47;;;;;;;23.23;12.52;;;13.90;99.90;;;;;;5022097;28;20017;-88
2024/02/18 11:32:13;;;;;;;26.58;13.25;;;13.80;99.90;;;;;;5031800;28;20013;-88
2024/02/18 11:34:39;;;;;;;22.42;12.80;;;13.80;99.90;;;;;;5030397;28;20483;-88
2024/02/18 11:37:33;;;;;;;20.77;11.85;;;13.90;99.90;;;;;;5030626;28;20025;-88
2024/02/18 11:40:04;;;;;;;20.80;11.88;;;13.90;99.90;;;;;;5029532;28;20476;-88
2024/02/18 11:42:29;;;;;;;21.08;12.00;;;13.90;99.90;;;;;;5026048;28;20044;-88
2024/02/18 11:45:13;;;;;;;24.73;12.70;;;13.90;99.90;;;;;;5030706;28;20364;-87
2024/02/18 11:47:46;;;;;;;23.45;12.00;;;13.90;99.90;;;;;;5039107;28;20021;-88
2024/02/18 11:50:13;;;;;;;24.02;11.65;;;13.80;99.90;;;;;;5027033;28;20029;-88
2024/02/18 11:52:44;;;;;;;21.13;9.45;;;13.80;99.90;;;;;;5030178;28;20013;-88
2024/02/18 11:55:15;;;;;;;26.30;11.52;;;13.80;99.90;;;;;;5018846;28;20025;-88
2024/02/18 11:57:41;;;;;;;22.35;11.75;;;13.70;99.90;;;;;;5037310;28;20025;-88
2024/02/18 12:00:12;;;;;;;27.55;12.48;;;13.80;99.90;;;;;;5032376;28;20025;-87
2024/02/18 12:02:39;;;;;;;21.52;10.65;;;13.70;99.90;;;;;;5035759;28;20066;-88
2024/02/18 12:05:06;;;;;;;18.48;10.48;;;13.70;99.90;;;;;;5025699;28;20067;-88
2024/02/18 12:07:33;;;;;;;18.77;10.13;;;13.70;99.90;;;;;;5034225;28;20029;-88
2024/02/18 12:10:00;;;;;;;16.23;10.07;;;13.60;99.90;;;;;;5034291;28;20025;-88
2024/02/18 12:12:26;;;;;;;20.35;10.27;;;13.60;99.90;;;;;;5024813;28;20028;-88
2024/02/18 12:14:55;;;;;;;15.93;8.70;;;13.50;99.90;;;;;;5027346;28;20067;-88
2024/02/18 12:17:24;;;;;;;15.38;7.55;;;13.40;99.90;;;;;;5034113;28;20052;-88
2024/02/18 12:19:50;;;;;;;14.73;6.85;;;13.40;99.90;;;;;;5051045;28;20167;-88
2024/02/18 12:22:25;;;;;;;12.77;7.15;;;13.30;99.90;;;;;;5034654;28;20021;-88
2024/02/18 12:24:51;;;;;;;15.30;8.18;;;13.20;99.90;;;;;;5035283;28;20028;-89
2024/02/18 12:27:20;;;;;;;12.23;6.88;;;13.20;99.90;;;;;;5032395;28;20021;-88
2024/02/18 12:29:53;;;;;;;10.83;5.93;;;13.10;99.90;;;;;;5029814;28;20021;-88